Time;durP1;ratioP1;P1;durP2;ratioP2;P2;SDS_P1;SDS_P2;PMS_P1;PMS_P2;Temp;Humidity;BMP_temperature;BMP_pressure;BME280_temperature;BME280_humidity;BME280_pressure;Samples;Min_cycle;Max_cycle;Signal;HPM_P1;HPM_P2
2023/05/03 00:01:27;;;;;;;;;20.75;20.00;;;;;;;;5028862;28;11150;-87
2023/05/03 00:03:55;;;;;;;;;22.75;19.00;;;;;;;;5028462;28;11132;-88
2023/05/03 00:06:22;;;;;;;;;21.75;19.75;;;;;;;;5029813;28;11130;-87
2023/05/03 00:08:50;;;;;;;;;12.00;12.00;;;;;;;;4995599;28;11270;-87
2023/05/03 00:11:21;;;;;;;;;12.25;10.50;;;;;;;;5028904;28;11009;-87
2023/05/03 00:13:48;;;;;;;;;14.50;14.50;;;;;;;;5001856;28;10804;-87
2023/05/03 00:16:15;;;;;;;;;18.25;13.75;;;;;;;;5030020;28;10929;-86
2023/05/03 00:18:43;;;;;;;;;13.75;12.25;;;;;;;;5031142;28;10799;-86
2023/05/03 00:21:10;;;;;;;;;11.50;9.75;;;;;;;;5032141;28;10862;-86
2023/05/03 00:23:37;;;;;;;;;14.75;12.50;;;;;;;;5030007;28;10723;-86
2023/05/03 00:26:05;;;;;;;;;15.25;13.25;;;;;;;;5032156;28;10770;-86
2023/05/03 00:28:34;;;;;;;;;13.25;13.25;;;;;;;;5032719;28;10793;-84
2023/05/03 00:31:11;;;;;;;;;12.75;12.75;;;;;;;;5031855;28;10744;-86
2023/05/03 00:33:39;;;;;;;;;14.00;11.00;;;;;;;;5033528;28;10733;-86
2023/05/03 00:36:09;;;;;;;;;15.25;11.75;;;;;;;;5024630;28;10847;-87
2023/05/03 00:38:37;;;;;;;;;17.00;12.25;;;;;;;;5030434;28;11480;-86
2023/05/03 00:41:05;;;;;;;;;10.00;9.00;;;;;;;;5032776;28;10696;-89
2023/05/03 00:43:36;;;;;;;;;10.50;10.50;;;;;;;;5031884;28;10884;-85
2023/05/03 00:46:05;;;;;;;;;14.25;13.00;;;;;;;;5022200;28;10934;-87
2023/05/03 00:48:33;;;;;;;;;10.25;10.00;;;;;;;;5031767;28;10789;-86
2023/05/03 00:51:03;;;;;;;;;11.50;11.00;;;;;;;;5029086;28;10800;-86
2023/05/03 00:53:31;;;;;;;;;18.25;13.00;;;;;;;;5032422;28;10860;-88
2023/05/03 00:55:59;;;;;;;;;15.50;11.75;;;;;;;;5032419;28;10880;-87
2023/05/03 00:58:27;;;;;;;;;19.25;17.25;;;;;;;;5032311;28;10872;-88
2023/05/03 01:00:56;;;;;;;;;21.75;20.50;;;;;;;;5030213;28;10996;-88
2023/05/03 01:03:23;;;;;;;;;19.25;19.25;;;;;;;;5032100;28;11887;-87
2023/05/03 01:05:55;;;;;;;;;18.75;18.75;;;;;;;;5031735;28;11275;-88
2023/05/03 01:08:29;;;;;;;;;22.00;19.75;;;;;;;;5032270;28;11115;-88
2023/05/03 01:11:06;;;;;;;;;21.00;17.25;;;;;;;;5032039;28;11142;-87
2023/05/03 01:13:42;;;;;;;;;16.50;11.75;;;;;;;;5020314;28;11056;-86
2023/05/03 01:16:14;;;;;;;;;18.75;17.00;;;;;;;;5021115;28;11287;-88
2023/05/03 01:18:47;;;;;;;;;22.00;16.50;;;;;;;;5019805;28;11245;-87
2023/05/03 01:21:17;;;;;;;;;17.75;16.25;;;;;;;;5031752;28;11164;-86
2023/05/03 01:23:55;;;;;;;;;17.50;16.75;;;;;;;;5023442;28;11197;-87
2023/05/03 01:26:24;;;;;;;;;11.75;11.00;;;;;;;;5030284;28;11110;-86
2023/05/03 01:28:52;;;;;;;;;16.00;16.00;;;;;;;;5031812;28;11244;-87
2023/05/03 01:31:23;;;;;;;;;23.75;21.25;;;;;;;;5031520;28;10966;-88
2023/05/03 01:34:05;;;;;;;;;21.25;18.50;;;;;;;;5030678;28;11221;-88
2023/05/03 01:36:33;;;;;;;;;10.00;10.00;;;;;;;;5023014;28;11306;-88
2023/05/03 01:39:05;;;;;;;;;16.50;14.00;;;;;;;;5029275;28;11193;-88
2023/05/03 01:41:35;;;;;;;;;15.75;11.75;;;;;;;;5022296;28;11250;-86
2023/05/03 01:44:04;;;;;;;;;20.25;19.25;;;;;;;;5014205;28;11188;-86
2023/05/03 01:46:31;;;;;;;;;16.25;13.75;;;;;;;;5031397;28;11347;-85
2023/05/03 01:48:58;;;;;;;;;15.75;15.75;;;;;;;;5030959;28;11268;-86
2023/05/03 01:51:26;;;;;;;;;12.50;12.50;;;;;;;;5031165;28;11110;-86
2023/05/03 01:53:53;;;;;;;;;17.50;15.25;;;;;;;;5030713;28;11214;-86
2023/05/03 01:56:21;;;;;;;;;13.00;13.00;;;;;;;;5029138;28;11191;-86
2023/05/03 01:58:50;;;;;;;;;13.00;11.75;;;;;;;;5030614;28;11199;-85
2023/05/03 02:01:17;;;;;;;;;18.75;16.75;;;;;;;;5030726;28;11129;-87
2023/05/03 02:03:44;;;;;;;;;14.50;13.25;;;;;;;;5028784;28;11209;-86
2023/05/03 02:06:12;;;;;;;;;16.75;15.75;;;;;;;;5031174;28;11105;-86
2023/05/03 02:08:39;;;;;;;;;19.75;19.75;;;;;;;;4999294;28;11456;-86
2023/05/03 02:11:07;;;;;;;;;12.75;9.75;;;;;;;;5032906;28;11183;-87
2023/05/03 02:13:34;;;;;;;;;18.75;14.50;;;;;;;;5031708;28;11218;-88
2023/05/03 02:16:03;;;;;;;;;14.00;14.00;;;;;;;;5017102;28;11182;-87
2023/05/03 02:18:32;;;;;;;;;11.50;9.75;;;;;;;;5016968;28;11108;-85
2023/05/03 02:20:59;;;;;;;;;17.00;14.75;;;;;;;;5033414;28;11209;-84
2023/05/03 02:23:28;;;;;;;;;17.25;17.25;;;;;;;;5033616;28;11116;-86
2023/05/03 02:25:55;;;;;;;;;19.75;17.75;;;;;;;;5033689;28;11126;-86
2023/05/03 02:28:22;;;;;;;;;16.75;13.75;;;;;;;;5032820;28;11176;-84
2023/05/03 02:30:53;;;;;;;;;21.00;17.75;;;;;;;;5031013;28;11023;-86
2023/05/03 02:33:24;;;;;;;;;16.50;16.50;;;;;;;;5031159;28;11177;-86
2023/05/03 02:35:52;;;;;;;;;13.00;13.00;;;;;;;;5025173;28;11582;-89
2023/05/03 02:38:19;;;;;;;;;18.50;17.25;;;;;;;;5024446;28;11228;-86
2023/05/03 02:40:46;;;;;;;;;21.50;21.00;;;;;;;;5030563;28;11464;-89
2023/05/03 02:43:13;;;;;;;;;17.50;17.50;;;;;;;;5022647;28;11457;-87
2023/05/03 02:45:41;;;;;;;;;19.25;16.00;;;;;;;;5030155;28;11429;-89
2023/05/03 02:48:08;;;;;;;;;15.25;15.25;;;;;;;;5029442;28;11575;-89
2023/05/03 02:50:37;;;;;;;;;17.50;16.50;;;;;;;;5029272;28;11275;-83
2023/05/03 02:53:04;;;;;;;;;19.50;16.00;;;;;;;;5029315;28;11601;-87
2023/05/03 02:55:32;;;;;;;;;10.00;9.00;;;;;;;;5028578;28;11596;-89
2023/05/03 02:57:59;;;;;;;;;15.00;15.00;;;;;;;;5030353;28;11547;-89
2023/05/03 03:00:27;;;;;;;;;18.75;18.50;;;;;;;;5029305;28;11198;-88
2023/05/03 03:02:54;;;;;;;;;18.25;18.25;;;;;;;;5030132;28;11574;-87
2023/05/03 03:05:21;;;;;;;;;21.50;16.50;;;;;;;;5027232;28;11472;-87
2023/05/03 03:07:51;;;;;;;;;16.75;15.00;;;;;;;;5030159;28;11468;-88
2023/05/03 03:10:18;;;;;;;;;25.75;21.50;;;;;;;;5028390;28;11543;-89
2023/05/03 03:12:45;;;;;;;;;15.75;15.00;;;;;;;;5029031;28;11571;-89
2023/05/03 03:15:13;;;;;;;;;15.50;15.50;;;;;;;;5029904;28;11439;-88
2023/05/03 03:17:40;;;;;;;;;25.75;24.00;;;;;;;;5029948;28;11464;-85
2023/05/03 03:20:11;;;;;;;;;22.00;21.25;;;;;;;;5028188;28;11437;-86
2023/05/03 03:22:38;;;;;;;;;19.00;18.00;;;;;;;;5029817;28;11486;-90
2023/05/03 03:25:09;;;;;;;;;24.50;24.50;;;;;;;;5011181;28;11496;-85
2023/05/03 03:27:37;;;;;;;;;18.50;18.00;;;;;;;;5030226;28;11593;-85
2023/05/03 03:30:07;;;;;;;;;19.25;19.25;;;;;;;;5031696;28;12219;-87
2023/05/03 03:32:34;;;;;;;;;14.75;13.75;;;;;;;;5032625;28;11574;-89
2023/05/03 03:35:01;;;;;;;;;27.00;21.25;;;;;;;;5029357;28;11531;-88
2023/05/03 03:37:29;;;;;;;;;16.75;15.25;;;;;;;;5027255;28;11603;-87
2023/05/03 03:39:58;;;;;;;;;21.50;19.50;;;;;;;;5029746;28;11795;-87
2023/05/03 03:42:28;;;;;;;;;18.75;17.50;;;;;;;;5030182;28;11511;-86
2023/05/03 03:44:55;;;;;;;;;23.75;20.25;;;;;;;;5019499;28;11581;-88
2023/05/03 03:47:22;;;;;;;;;22.00;17.50;;;;;;;;5025272;28;11516;-86
2023/05/03 03:49:50;;;;;;;;;18.50;18.50;;;;;;;;5029257;28;11454;-87
2023/05/03 03:52:25;;;;;;;;;19.25;16.25;;;;;;;;5028948;28;11502;-86
2023/05/03 03:55:02;;;;;;;;;19.50;14.50;;;;;;;;5029267;28;11540;-86
2023/05/03 03:57:31;;;;;;;;;18.00;18.00;;;;;;;;5025865;28;11495;-88
2023/05/03 03:59:59;;;;;;;;;18.25;18.25;;;;;;;;5029987;28;11577;-87
2023/05/03 04:02:27;;;;;;;;;27.50;18.75;;;;;;;;5029048;28;12194;-85
2023/05/03 04:04:56;;;;;;;;;25.50;21.50;;;;;;;;5013277;28;11607;-85
2023/05/03 04:07:23;;;;;;;;;21.75;18.50;;;;;;;;5031489;28;11511;-86
2023/05/03 04:09:52;;;;;;;;;23.75;22.00;;;;;;;;5038148;28;11497;-84
2023/05/03 04:12:19;;;;;;;;;22.50;20.25;;;;;;;;5033022;28;11625;-86
2023/05/03 04:14:48;;;;;;;;;21.75;18.00;;;;;;;;5035086;28;11485;-83
2023/05/03 04:17:15;;;;;;;;;17.50;11.25;;;;;;;;5024482;28;11546;-86
2023/05/03 04:19:42;;;;;;;;;25.50;19.50;;;;;;;;5035298;28;11530;-84
2023/05/03 04:22:09;;;;;;;;;18.00;18.00;;;;;;;;5026121;28;11521;-82
2023/05/03 04:24:38;;;;;;;;;25.00;21.25;;;;;;;;5032250;28;11507;-78
2023/05/03 04:27:05;;;;;;;;;24.00;21.00;;;;;;;;5031190;28;11490;-80
2023/05/03 04:29:32;;;;;;;;;23.75;21.00;;;;;;;;5031407;28;11507;-79
2023/05/03 04:32:02;;;;;;;;;28.50;24.75;;;;;;;;5026762;28;11436;-78
2023/05/03 04:34:30;;;;;;;;;25.50;23.50;;;;;;;;5026670;28;11501;-78
2023/05/03 04:36:57;;;;;;;;;27.25;20.25;;;;;;;;5030589;28;11494;-80
2023/05/03 04:39:25;;;;;;;;;26.75;21.00;;;;;;;;5030839;28;11519;-79
2023/05/03 04:41:52;;;;;;;;;21.50;21.00;;;;;;;;5030195;28;11864;-77
2023/05/03 04:44:19;;;;;;;;;20.50;18.25;;;;;;;;5030153;28;11520;-76
2023/05/03 04:46:47;;;;;;;;;25.00;22.50;;;;;;;;5025494;28;11518;-81
2023/05/03 04:49:16;;;;;;;;;21.50;19.00;;;;;;;;5019252;28;11580;-80
2023/05/03 04:51:43;;;;;;;;;23.00;20.50;;;;;;;;5032325;28;11495;-80
2023/05/03 04:54:11;;;;;;;;;22.50;20.50;;;;;;;;5031517;28;11530;-81
2023/05/03 04:56:38;;;;;;;;;29.50;24.50;;;;;;;;5032651;28;11495;-78
2023/05/03 04:59:05;;;;;;;;;19.75;18.00;;;;;;;;5019948;28;11523;-79
2023/05/03 05:01:32;;;;;;;;;28.75;26.00;;;;;;;;5030637;28;11517;-78
2023/05/03 05:03:59;;;;;;;;;27.00;24.50;;;;;;;;5028421;28;11585;-75
2023/05/03 05:06:28;;;;;;;;;29.25;26.00;;;;;;;;5030494;28;11526;-78
2023/05/03 05:08:58;;;;;;;;;24.75;22.25;;;;;;;;5029204;28;11665;-75
2023/05/03 05:11:26;;;;;;;;;23.00;23.00;;;;;;;;5028989;28;11499;-76
2023/05/03 05:13:53;;;;;;;;;30.75;22.00;;;;;;;;5029527;28;11585;-80
2023/05/03 05:16:20;;;;;;;;;27.25;23.75;;;;;;;;5029925;28;12376;-80
2023/05/03 05:18:48;;;;;;;;;28.25;26.50;;;;;;;;5029216;28;11507;-79
2023/05/03 05:21:15;;;;;;;;;24.25;22.50;;;;;;;;5029982;28;11516;-79
2023/05/03 05:23:43;;;;;;;;;30.00;28.00;;;;;;;;5029781;28;11507;-79
2023/05/03 05:26:11;;;;;;;;;25.75;19.00;;;;;;;;5029129;28;11482;-79
2023/05/03 05:28:38;;;;;;;;;31.50;24.75;;;;;;;;5029546;28;11516;-74
2023/05/03 05:31:05;;;;;;;;;23.75;23.75;;;;;;;;5029029;28;11446;-79
2023/05/03 05:33:32;;;;;;;;;24.50;22.25;;;;;;;;5027631;28;11503;-75
2023/05/03 05:36:00;;;;;;;;;25.75;25.75;;;;;;;;5028883;28;11499;-76
2023/05/03 05:38:27;;;;;;;;;25.50;25.50;;;;;;;;5028771;28;11545;-81
2023/05/03 05:40:55;;;;;;;;;30.25;29.00;;;;;;;;5028871;28;11508;-79
2023/05/03 05:43:22;;;;;;;;;27.75;26.25;;;;;;;;5029165;28;11596;-78
2023/05/03 05:45:50;;;;;;;;;32.50;27.00;;;;;;;;5028726;28;11510;-78
2023/05/03 05:48:17;;;;;;;;;22.25;20.50;;;;;;;;5029169;28;12325;-76
2023/05/03 05:50:44;;;;;;;;;24.50;24.50;;;;;;;;5030033;28;11659;-76
2023/05/03 05:53:11;;;;;;;;;30.00;28.75;;;;;;;;5030524;28;11464;-78
2023/05/03 05:55:39;;;;;;;;;27.25;24.75;;;;;;;;5030521;28;11657;-77
2023/05/03 05:58:08;;;;;;;;;24.75;23.25;;;;;;;;5021644;28;11453;-78
2023/05/03 06:00:35;;;;;;;;;27.25;23.25;;;;;;;;5028242;28;11400;-78
2023/05/03 06:03:03;;;;;;;;;21.00;21.00;;;;;;;;5032646;28;11541;-78
2023/05/03 06:05:30;;;;;;;;;28.25;24.00;;;;;;;;5030027;28;11489;-79
2023/05/03 06:07:57;;;;;;;;;27.75;25.00;;;;;;;;5032264;28;11585;-79
2023/05/03 06:10:25;;;;;;;;;25.50;23.00;;;;;;;;5031324;28;11466;-79
2023/05/03 06:12:52;;;;;;;;;25.50;24.75;;;;;;;;5029890;28;11480;-78
2023/05/03 06:15:20;;;;;;;;;21.50;17.75;;;;;;;;5028828;28;11495;-75
2023/05/03 06:17:47;;;;;;;;;25.75;22.50;;;;;;;;5028392;28;11423;-77
2023/05/03 06:20:15;;;;;;;;;22.00;22.00;;;;;;;;5022499;28;12250;-77
2023/05/03 06:22:42;;;;;;;;;19.50;18.50;;;;;;;;5028346;28;12184;-75
2023/05/03 06:25:12;;;;;;;;;28.00;26.00;;;;;;;;5028393;28;11488;-76
2023/05/03 06:27:40;;;;;;;;;27.50;22.75;;;;;;;;5028337;28;11478;-75
2023/05/03 06:30:11;;;;;;;;;25.50;25.00;;;;;;;;5027671;28;11467;-76
2023/05/03 06:32:42;;;;;;;;;20.00;20.00;;;;;;;;5028672;28;11466;-76
2023/05/03 06:35:09;;;;;;;;;20.00;18.00;;;;;;;;5028518;28;11456;-76
2023/05/03 06:37:37;;;;;;;;;21.25;18.75;;;;;;;;5028590;28;11541;-76
2023/05/03 06:40:05;;;;;;;;;19.25;18.25;;;;;;;;5028829;28;11590;-76
2023/05/03 06:42:32;;;;;;;;;18.00;17.00;;;;;;;;5024197;28;11506;-78
2023/05/03 06:44:59;;;;;;;;;22.50;19.00;;;;;;;;5028414;28;11586;-75
2023/05/03 06:47:26;;;;;;;;;24.75;19.00;;;;;;;;5028671;28;12235;-76
2023/05/03 06:49:55;;;;;;;;;20.50;17.25;;;;;;;;5027675;28;11489;-75
2023/05/03 06:52:22;;;;;;;;;20.25;18.50;;;;;;;;5027528;28;11485;-74
2023/05/03 06:54:49;;;;;;;;;21.25;19.50;;;;;;;;5027568;28;11259;-76
2023/05/03 06:57:17;;;;;;;;;27.25;23.75;;;;;;;;5024891;28;12238;-75
2023/05/03 06:59:45;;;;;;;;;12.75;11.50;;;;;;;;5027740;28;11447;-75
2023/05/03 07:02:12;;;;;;;;;13.50;12.25;;;;;;;;5026745;28;11903;-75
2023/05/03 07:04:39;;;;;;;;;20.75;20.00;;;;;;;;5027775;28;11194;-73
2023/05/03 07:07:08;;;;;;;;;24.25;21.50;;;;;;;;5027210;28;11250;-76
2023/05/03 07:09:35;;;;;;;;;13.75;13.50;;;;;;;;5026915;28;11166;-76
2023/05/03 07:12:02;;;;;;;;;22.75;21.50;;;;;;;;5027016;28;11115;-77
2023/05/03 07:14:30;;;;;;;;;22.25;22.25;;;;;;;;5026340;28;11765;-77
2023/05/03 07:16:57;;;;;;;;;25.25;23.25;;;;;;;;5027446;28;11190;-76
2023/05/03 07:19:24;;;;;;;;;26.00;23.25;;;;;;;;5027017;28;11481;-78
2023/05/03 07:21:52;;;;;;;;;24.75;21.75;;;;;;;;5027505;28;11436;-76
2023/05/03 07:24:20;;;;;;;;;20.50;18.50;;;;;;;;5026276;28;11573;-77
2023/05/03 07:26:48;;;;;;;;;22.25;20.75;;;;;;;;5026870;28;12219;-74
2023/05/03 07:29:15;;;;;;;;;22.75;19.50;;;;;;;;5026297;28;11615;-74
2023/05/03 07:31:43;;;;;;;;;27.25;24.25;;;;;;;;5026368;28;10931;-73
2023/05/03 07:34:10;;;;;;;;;17.50;16.75;;;;;;;;5026247;28;10826;-76
2023/05/03 07:36:38;;;;;;;;;20.00;20.00;;;;;;;;5028077;28;10429;-74
2023/05/03 07:39:06;;;;;;;;;21.50;19.50;;;;;;;;5026923;28;10501;-75
2023/05/03 07:41:35;;;;;;;;;22.00;18.25;;;;;;;;5028493;28;10415;-75
2023/05/03 07:44:03;;;;;;;;;16.25;16.25;;;;;;;;5031244;28;10621;-75
2023/05/03 07:46:33;;;;;;;;;24.50;22.25;;;;;;;;5033766;28;10251;-78
2023/05/03 07:49:02;;;;;;;;;22.50;17.25;;;;;;;;5033237;28;10370;-78
2023/05/03 07:51:30;;;;;;;;;19.25;16.75;;;;;;;;5033420;28;10103;-77
2023/05/03 07:53:57;;;;;;;;;19.50;19.50;;;;;;;;5032320;28;10105;-76
2023/05/03 07:56:26;;;;;;;;;16.75;16.75;;;;;;;;5032471;28;10110;-76
2023/05/03 07:58:56;;;;;;;;;14.75;14.25;;;;;;;;5025142;28;9999;-76
2023/05/03 08:01:23;;;;;;;;;17.50;17.00;;;;;;;;5031423;28;9904;-78
2023/05/03 08:03:50;;;;;;;;;19.75;16.50;;;;;;;;5031406;28;9849;-75
2023/05/03 08:06:18;;;;;;;;;18.75;18.75;;;;;;;;5030872;28;9862;-76
2023/05/03 08:08:45;;;;;;;;;16.00;16.00;;;;;;;;5030907;28;10427;-75
2023/05/03 08:11:12;;;;;;;;;16.50;16.00;;;;;;;;5030256;28;9643;-76
2023/05/03 08:13:40;;;;;;;;;16.75;16.75;;;;;;;;5013567;28;9528;-76
2023/05/03 08:16:08;;;;;;;;;20.00;17.25;;;;;;;;5026048;28;9501;-75
2023/05/03 08:18:36;;;;;;;;;19.25;19.25;;;;;;;;5026895;28;10310;-75
2023/05/03 08:21:03;;;;;;;;;20.67;19.33;;;;;;;;5030256;28;9516;-76
2023/05/03 08:23:30;;;;;;;;;17.33;17.33;;;;;;;;5030786;28;9534;-75
2023/05/03 08:25:59;;;;;;;;;20.33;18.00;;;;;;;;5030359;28;9246;-77
2023/05/03 08:28:26;;;;;;;;;12.00;11.33;;;;;;;;5030383;28;9381;-77
2023/05/03 08:30:54;;;;;;;;;16.67;16.67;;;;;;;;5029991;28;9117;-76
2023/05/03 08:33:22;;;;;;;;;20.00;17.33;;;;;;;;5030291;28;9028;-75
2023/05/03 08:35:49;;;;;;;;;10.00;10.00;;;;;;;;5022071;28;9182;-77
2023/05/03 08:38:17;;;;;;;;;18.00;17.33;;;;;;;;5031307;28;8894;-75
2023/05/03 08:40:45;;;;;;;;;18.75;16.50;;;;;;;;5030347;28;8979;-76
2023/05/03 08:43:14;;;;;;;;;17.50;17.50;;;;;;;;5029650;28;8945;-75
2023/05/03 08:45:41;;;;;;;;;18.67;16.00;;;;;;;;5030186;28;8846;-75
2023/05/03 08:48:08;;;;;;;;;17.50;15.25;;;;;;;;5027473;28;9085;-76
2023/05/03 08:50:41;;;;;;;;;15.00;15.00;;;;;;;;5020912;28;8850;-75
2023/05/03 08:53:08;;;;;;;;;13.75;13.75;;;;;;;;5028589;28;8864;-75
2023/05/03 08:55:35;;;;;;;;;17.25;15.50;;;;;;;;5019651;28;8844;-76
2023/05/03 08:58:06;;;;;;;;;20.00;18.00;;;;;;;;5018317;28;8864;-76
2023/05/03 09:00:34;;;;;;;;;18.75;17.25;;;;;;;;5026987;28;8806;-77
2023/05/03 09:03:02;;;;;;;;;16.75;15.50;;;;;;;;5029045;28;8842;-82
2023/05/03 09:05:34;;;;;;;;;18.75;17.25;;;;;;;;5030771;28;8843;-80
2023/05/03 09:08:03;;;;;;;;;18.00;18.00;;;;;;;;5030134;28;9632;-77
2023/05/03 09:10:31;;;;;;;;;19.50;16.25;;;;;;;;5029793;28;8851;-77
2023/05/03 09:12:59;;;;;;;;;20.00;16.75;;;;;;;;5030350;28;8985;-78
2023/05/03 09:15:28;;;;;;;;;15.00;14.75;;;;;;;;5028680;28;8873;-77
2023/05/03 09:18:09;;;;;;;;;13.50;13.25;;;;;;;;5030000;28;8960;-78
2023/05/03 09:20:38;;;;;;;;;11.75;11.75;;;;;;;;5020497;28;9743;-76
2023/05/03 09:23:07;;;;;;;;;13.75;11.00;;;;;;;;5029403;28;8959;-76
2023/05/03 09:25:44;;;;;;;;;12.25;11.50;;;;;;;;5030123;28;8861;-78
2023/05/03 09:28:11;;;;;;;;;14.25;14.25;;;;;;;;5030000;28;8858;-75
2023/05/03 09:30:39;;;;;;;;;12.00;12.00;;;;;;;;5029793;28;8802;-79
2023/05/03 09:33:06;;;;;;;;;12.50;12.50;;;;;;;;5031252;28;8880;-79
2023/05/03 09:35:34;;;;;;;;;10.75;9.50;;;;;;;;5033094;28;8904;-79
2023/05/03 09:38:01;;;;;;;;;11.25;11.25;;;;;;;;5031260;28;8875;-81
2023/05/03 09:40:30;;;;;;;;;11.00;9.25;;;;;;;;5032467;28;8947;-77
2023/05/03 09:43:08;;;;;;;;;9.25;9.25;;;;;;;;5031779;28;8870;-78
2023/05/03 09:45:35;;;;;;;;;11.25;9.75;;;;;;;;5033684;28;8908;-77
2023/05/03 09:48:04;;;;;;;;;8.75;8.75;;;;;;;;5031777;28;8842;-77
2023/05/03 09:50:33;;;;;;;;;9.25;8.00;;;;;;;;5024004;28;8965;-75
2023/05/03 09:53:03;;;;;;;;;13.50;11.25;;;;;;;;5029576;28;8865;-77
2023/05/03 09:55:34;;;;;;;;;9.00;9.00;;;;;;;;5029832;28;8842;-77
2023/05/03 09:58:03;;;;;;;;;14.25;14.25;;;;;;;;5018843;28;8825;-77
2023/05/03 10:00:30;;;;;;;;;11.75;11.75;;;;;;;;5025724;28;8833;-77
2023/05/03 10:02:58;;;;;;;;;10.50;10.50;;;;;;;;5029152;28;8850;-79
2023/05/03 10:05:27;;;;;;;;;12.50;11.75;;;;;;;;5028552;28;8835;-79
2023/05/03 10:07:56;;;;;;;;;12.25;10.00;;;;;;;;5029217;28;8912;-79
2023/05/03 10:10:24;;;;;;;;;11.00;11.00;;;;;;;;5027933;28;8866;-76
2023/05/03 10:12:53;;;;;;;;;11.00;11.00;;;;;;;;5028805;28;8969;-76
2023/05/03 10:15:21;;;;;;;;;15.00;13.50;;;;;;;;5028087;28;8850;-78
2023/05/03 10:17:51;;;;;;;;;13.00;10.25;;;;;;;;5028968;28;8846;-77
2023/05/03 10:20:25;;;;;;;;;10.00;10.00;;;;;;;;5028897;28;8864;-76
2023/05/03 10:23:08;;;;;;;;;12.50;10.75;;;;;;;;5029337;28;8838;-79
2023/05/03 10:25:37;;;;;;;;;10.25;10.25;;;;;;;;5029555;28;8857;-78
2023/05/03 10:28:07;;;;;;;;;11.50;10.00;;;;;;;;5028280;28;8846;-77
2023/05/03 10:30:35;;;;;;;;;8.25;8.00;;;;;;;;5028736;28;9271;-78
2023/05/03 10:33:30;;;;;;;;;11.75;10.50;;;;;;;;5028370;28;8846;-78
2023/05/03 10:35:59;;;;;;;;;10.20;10.20;;;;;;;;5027870;28;8869;-78
2023/05/03 10:38:27;;;;;;;;;11.25;11.25;;;;;;;;5028256;28;8841;-76
2023/05/03 10:40:56;;;;;;;;;12.00;11.00;;;;;;;;5028536;28;8846;-76
2023/05/03 10:43:42;;;;;;;;;8.50;8.50;;;;;;;;5028249;28;8846;-78
2023/05/03 10:46:29;;;;;;;;;10.50;10.50;;;;;;;;5027338;28;9744;-85
2023/05/03 10:49:15;;;;;;;;;5.00;3.20;;;;;;;;5029649;28;8851;-81
2023/05/03 10:51:44;;;;;;;;;12.60;10.00;;;;;;;;5025869;28;8872;-79
2023/05/03 10:54:11;;;;;;;;;11.60;10.00;;;;;;;;5029270;28;8842;-82
2023/05/03 10:56:49;;;;;;;;;8.60;8.60;;;;;;;;5029056;28;8867;-80
2023/05/03 10:59:18;;;;;;;;;10.40;10.00;;;;;;;;5027751;28;8855;-78
2023/05/03 11:01:46;;;;;;;;;9.40;8.60;;;;;;;;5027561;28;8814;-80
2023/05/03 11:04:19;;;;;;;;;11.20;10.00;;;;;;;;5028131;28;8869;-78
2023/05/03 11:06:50;;;;;;;;;7.80;7.80;;;;;;;;5027957;28;8842;-81
2023/05/03 11:09:17;;;;;;;;;8.80;8.80;;;;;;;;5029071;28;8850;-84
2023/05/03 11:11:45;;;;;;;;;11.80;8.80;;;;;;;;5027059;28;8850;-82
2023/05/03 11:14:13;;;;;;;;;7.60;7.60;;;;;;;;5028851;28;8884;-83
2023/05/03 11:16:49;;;;;;;;;7.20;7.20;;;;;;;;5026881;28;8841;-81
2023/05/03 11:19:17;;;;;;;;;10.60;8.20;;;;;;;;5028112;28;8838;-81
2023/05/03 11:21:44;;;;;;;;;8.20;8.20;;;;;;;;5027759;28;8881;-79
2023/05/03 11:24:11;;;;;;;;;7.20;7.20;;;;;;;;5028799;28;8884;-80
2023/05/03 11:26:39;;;;;;;;;10.20;8.80;;;;;;;;5029668;28;8866;-79
2023/05/03 11:29:09;;;;;;;;;10.00;10.00;;;;;;;;5030520;28;8842;-81
2023/05/03 11:31:36;;;;;;;;;9.20;9.20;;;;;;;;5029188;28;8894;-79
2023/05/03 11:34:07;;;;;;;;;8.80;6.00;;;;;;;;5030858;28;9021;-80
2023/05/03 11:36:35;;;;;;;;;6.80;6.40;;;;;;;;5030393;28;8880;-80
2023/05/03 11:39:04;;;;;;;;;6.80;6.80;;;;;;;;5030245;28;8830;-80
2023/05/03 11:41:31;;;;;;;;;8.20;8.20;;;;;;;;5029697;28;8872;-85
2023/05/03 11:44:02;;;;;;;;;6.00;5.60;;;;;;;;5028896;28;8842;-84
2023/05/03 11:46:33;;;;;;;;;8.20;8.20;;;;;;;;5028418;28;8834;-80
2023/05/03 11:49:01;;;;;;;;;6.60;6.60;;;;;;;;5028341;28;8862;-79
2023/05/03 11:51:31;;;;;;;;;6.00;6.00;;;;;;;;5027448;28;8843;-78
2023/05/03 11:54:01;;;;;;;;;8.00;8.00;;;;;;;;5027322;28;8943;-78
2023/05/03 11:56:28;;;;;;;;;9.00;9.00;;;;;;;;5016108;28;8846;-79
2023/05/03 11:58:57;;;;;;;;;6.00;6.00;;;;;;;;5015413;28;8877;-81
2023/05/03 12:01:25;;;;;;;;;4.00;4.00;;;;;;;;5026923;28;8787;-78
2023/05/03 12:03:57;;;;;;;;;8.00;6.40;;;;;;;;5027987;28;8850;-77
2023/05/03 12:06:26;;;;;;;;;6.80;6.80;;;;;;;;5027827;28;8864;-78
2023/05/03 12:08:55;;;;;;;;;9.40;9.40;;;;;;;;5027328;28;8932;-79
2023/05/03 12:11:22;;;;;;;;;8.60;6.80;;;;;;;;5027397;28;9000;-78
2023/05/03 12:13:58;;;;;;;;;5.60;5.00;;;;;;;;5025906;28;8873;-81
2023/05/03 12:16:25;;;;;;;;;7.80;7.00;;;;;;;;5027734;28;8854;-79
2023/05/03 12:18:55;;;;;;;;;6.00;5.60;;;;;;;;5028198;28;8866;-78
2023/05/03 12:21:24;;;;;;;;;7.00;5.80;;;;;;;;5027401;28;8846;-81
2023/05/03 12:23:51;;;;;;;;;7.20;7.20;;;;;;;;5027709;28;8900;-80
2023/05/03 12:26:21;;;;;;;;;5.00;5.00;;;;;;;;5026747;28;8854;-83
2023/05/03 12:28:49;;;;;;;;;6.60;6.00;;;;;;;;5029848;28;8838;-77
2023/05/03 12:31:17;;;;;;;;;3.40;3.40;;;;;;;;5029923;28;8922;-78
2023/05/03 12:33:44;;;;;;;;;5.80;5.80;;;;;;;;5031313;28;8838;-76
2023/05/03 12:36:12;;;;;;;;;5.80;5.80;;;;;;;;5031433;28;8881;-78
2023/05/03 12:38:39;;;;;;;;;6.20;6.20;;;;;;;;5030870;28;8913;-79
2023/05/03 12:41:06;;;;;;;;;4.80;4.80;;;;;;;;5030335;28;8905;-78
2023/05/03 12:43:35;;;;;;;;;5.20;5.20;;;;;;;;5031546;28;8854;-76
2023/05/03 12:46:02;;;;;;;;;3.80;3.80;;;;;;;;5030223;28;8850;-80
2023/05/03 12:48:30;;;;;;;;;5.00;5.00;;;;;;;;5031140;28;8871;-83
2023/05/03 12:50:57;;;;;;;;;5.60;5.60;;;;;;;;5030462;28;8862;-77
2023/05/03 12:53:25;;;;;;;;;5.20;5.20;;;;;;;;5030566;28;8846;-79
2023/05/03 12:55:53;;;;;;;;;4.80;4.80;;;;;;;;5030511;28;8839;-83
2023/05/03 12:58:21;;;;;;;;;5.00;5.00;;;;;;;;5030049;28;8850;-80
2023/05/03 13:00:49;;;;;;;;;6.80;6.80;;;;;;;;5028954;28;8807;-80
2023/05/03 13:03:17;;;;;;;;;3.60;3.60;;;;;;;;5030472;28;8872;-82
2023/05/03 13:05:45;;;;;;;;;4.00;4.00;;;;;;;;5030238;28;8850;-82
2023/05/03 13:08:12;;;;;;;;;3.80;3.80;;;;;;;;5030843;28;8858;-81
2023/05/03 13:10:40;;;;;;;;;4.40;4.40;;;;;;;;5030695;28;8857;-82
2023/05/03 13:13:08;;;;;;;;;3.00;3.00;;;;;;;;5032380;28;9645;-83
2023/05/03 13:15:36;;;;;;;;;4.60;4.60;;;;;;;;5033264;28;8872;-84
2023/05/03 13:18:06;;;;;;;;;3.40;3.40;;;;;;;;5031916;28;8901;-82
2023/05/03 13:20:34;;;;;;;;;2.80;2.80;;;;;;;;5034226;28;8855;-85
2023/05/03 13:23:02;;;;;;;;;3.60;3.60;;;;;;;;5032755;28;8839;-84
2023/05/03 13:25:30;;;;;;;;;4.20;3.20;;;;;;;;5033950;28;8842;-84
2023/05/03 13:27:57;;;;;;;;;6.80;6.80;;;;;;;;5032045;28;8876;-82
2023/05/03 13:30:24;;;;;;;;;5.20;4.60;;;;;;;;5029745;28;8808;-82
2023/05/03 13:32:51;;;;;;;;;4.60;4.60;;;;;;;;5029653;28;8953;-78
2023/05/03 13:35:20;;;;;;;;;5.80;5.80;;;;;;;;5018342;28;8843;-78
2023/05/03 13:37:47;;;;;;;;;4.20;4.20;;;;;;;;5027080;28;8972;-79
2023/05/03 13:40:15;;;;;;;;;4.00;3.00;;;;;;;;5018712;28;8843;-77
2023/05/03 13:42:42;;;;;;;;;2.60;2.60;;;;;;;;5029557;28;8896;-82
2023/05/03 13:45:11;;;;;;;;;3.00;3.00;;;;;;;;5029294;28;8856;-79
2023/05/03 13:47:38;;;;;;;;;3.60;3.60;;;;;;;;5029289;28;8842;-81
2023/05/03 13:50:06;;;;;;;;;3.20;3.20;;;;;;;;5029274;28;8838;-80
2023/05/03 13:52:35;;;;;;;;;3.40;3.40;;;;;;;;5029453;28;8866;-85
2023/05/03 13:55:03;;;;;;;;;3.20;3.20;;;;;;;;5029081;28;8869;-78
2023/05/03 13:57:30;;;;;;;;;4.20;4.20;;;;;;;;5024329;28;9720;-81
2023/05/03 13:59:57;;;;;;;;;5.00;3.60;;;;;;;;5022210;28;8949;-82
2023/05/03 14:02:25;;;;;;;;;3.80;3.80;;;;;;;;5028529;28;8896;-83
2023/05/03 14:04:52;;;;;;;;;5.80;4.20;;;;;;;;5029736;28;8844;-77
2023/05/03 14:07:19;;;;;;;;;4.60;4.60;;;;;;;;5028982;28;8850;-77
2023/05/03 14:09:48;;;;;;;;;2.60;2.60;;;;;;;;5029174;28;8861;-81
2023/05/03 14:12:15;;;;;;;;;3.40;2.20;;;;;;;;5027708;28;9002;-79
2023/05/03 14:14:42;;;;;;;;;3.00;3.00;;;;;;;;5028839;28;8838;-83
2023/05/03 14:17:10;;;;;;;;;3.20;3.20;;;;;;;;5028836;28;8854;-84
2023/05/03 14:19:38;;;;;;;;;2.40;2.40;;;;;;;;5028778;28;8876;-78
2023/05/03 14:22:05;;;;;;;;;5.00;5.00;;;;;;;;5029729;28;8912;-81
2023/05/03 14:24:32;;;;;;;;;4.20;3.60;;;;;;;;5030447;28;8842;-81
2023/05/03 14:27:01;;;;;;;;;3.80;3.80;;;;;;;;5029913;28;8872;-81
2023/05/03 14:29:29;;;;;;;;;3.20;3.20;;;;;;;;5028596;28;8842;-76
2023/05/03 14:31:56;;;;;;;;;5.00;3.20;;;;;;;;5028340;28;8892;-78
2023/05/03 14:34:23;;;;;;;;;3.00;3.00;;;;;;;;5028714;28;8901;-81
2023/05/03 14:36:51;;;;;;;;;4.20;4.20;;;;;;;;5028947;28;8854;-75
2023/05/03 14:39:18;;;;;;;;;4.00;4.00;;;;;;;;5027916;28;8904;-83